sensor_id;sensor_type;location;lat;lon;timestamp;temperature;humidity
63445;DHT22;49573;47.682;9.170;2023-07-09T02:28:24;33.80;40.20
63445;DHT22;49573;47.682;9.170;2023-07-09T02:31:10;19.00;78.60
63445;DHT22;49573;47.682;9.170;2023-07-09T02:33:56;19.00;78.50
63445;DHT22;49573;47.682;9.170;2023-07-09T02:36:42;19.00;78.50
63445;DHT22;49573;47.682;9.170;2023-07-09T02:39:29;19.00;78.30
63445;DHT22;49573;47.682;9.170;2023-07-09T02:42:17;18.90;78.80
63445;DHT22;49573;47.682;9.170;2023-07-09T02:45:05;18.90;79.30
63445;DHT22;49573;47.682;9.170;2023-07-09T02:47:52;18.80;79.10
63445;DHT22;49573;47.682;9.170;2023-07-09T02:50:38;18.80;79.50
63445;DHT22;49573;47.682;9.170;2023-07-09T02:53:24;18.80;79.00
63445;DHT22;49573;47.682;9.170;2023-07-09T02:56:11;18.80;79.30
63445;DHT22;49573;47.682;9.170;2023-07-09T02:58:57;18.80;79.30
63445;DHT22;49573;47.682;9.170;2023-07-09T03:01:44;18.80;79.00
63445;DHT22;49573;47.682;9.170;2023-07-09T03:04:31;18.80;79.30
63445;DHT22;49573;47.682;9.170;2023-07-09T03:07:17;18.80;79.60
63445;DHT22;49573;47.682;9.170;2023-07-09T03:10:03;18.80;79.60
63445;DHT22;49573;47.682;9.170;2023-07-09T03:12:49;18.80;79.30
63445;DHT22;49573;47.682;9.170;2023-07-09T03:15:35;18.70;79.70
63445;DHT22;49573;47.682;9.170;2023-07-09T03:18:23;18.70;79.30
63445;DHT22;49573;47.682;9.170;2023-07-09T03:21:09;18.70;79.20
63445;DHT22;49573;47.682;9.170;2023-07-09T03:23:55;18.60;79.60
63445;DHT22;49573;47.682;9.170;2023-07-09T03:26:41;18.50;79.70
63445;DHT22;49573;47.682;9.170;2023-07-09T03:29:28;18.50;79.90
63445;DHT22;49573;47.682;9.170;2023-07-09T03:32:14;18.40;79.90
63445;DHT22;49573;47.682;9.170;2023-07-09T03:35:01;18.40;80.00
63445;DHT22;49573;47.682;9.170;2023-07-09T03:37:47;18.30;80.30
63445;DHT22;49573;47.682;9.170;2023-07-09T03:40:33;18.30;80.10
63445;DHT22;49573;47.682;9.170;2023-07-09T03:43:20;18.40;79.70
63445;DHT22;49573;47.682;9.170;2023-07-09T03:46:06;18.40;79.80
63445;DHT22;49573;47.682;9.170;2023-07-09T03:48:52;18.30;79.90
63445;DHT22;49573;47.682;9.170;2023-07-09T03:51:40;18.20;80.80
63445;DHT22;49573;47.682;9.170;2023-07-09T03:54:26;18.30;80.40
63445;DHT22;49573;47.682;9.170;2023-07-09T03:57:12;18.30;80.00
63445;DHT22;49573;47.682;9.170;2023-07-09T03:59:58;18.30;80.00
63445;DHT22;49573;47.682;9.170;2023-07-09T04:02:44;18.40;80.10
63445;DHT22;49573;47.682;9.170;2023-07-09T04:05:30;18.30;79.80
63445;DHT22;49573;47.682;9.170;2023-07-09T04:08:18;18.40;80.00
63445;DHT22;49573;47.682;9.170;2023-07-09T04:11:04;18.40;80.30
63445;DHT22;49573;47.682;9.170;2023-07-09T04:13:50;18.40;80.00
63445;DHT22;49573;47.682;9.170;2023-07-09T04:16:36;18.40;80.30
63445;DHT22;49573;47.682;9.170;2023-07-09T04:19:22;18.40;80.10
63445;DHT22;49573;47.682;9.170;2023-07-09T04:22:10;18.40;80.10
63445;DHT22;49573;47.682;9.170;2023-07-09T04:24:58;18.40;80.10
63445;DHT22;49573;47.682;9.170;2023-07-09T04:27:44;18.40;80.00
63445;DHT22;49573;47.682;9.170;2023-07-09T04:30:30;18.50;80.30
63445;DHT22;49573;47.682;9.170;2023-07-09T04:33:16;18.50;80.30
63445;DHT22;49573;47.682;9.170;2023-07-09T04:36:03;18.50;80.70
63445;DHT22;49573;47.682;9.170;2023-07-09T04:38:52;18.50;80.50
63445;DHT22;49573;47.682;9.170;2023-07-09T04:41:39;18.60;80.50
63445;DHT22;49573;47.682;9.170;2023-07-09T04:44:26;18.60;80.00
63445;DHT22;49573;47.682;9.170;2023-07-09T04:47:12;18.70;79.90
63445;DHT22;49573;47.682;9.170;2023-07-09T04:49:58;18.70;79.90
63445;DHT22;49573;47.682;9.170;2023-07-09T04:52:44;18.80;80.00
63445;DHT22;49573;47.682;9.170;2023-07-09T04:55:30;18.80;79.90
63445;DHT22;49573;47.682;9.170;2023-07-09T04:58:18;18.80;79.90
63445;DHT22;49573;47.682;9.170;2023-07-09T05:01:04;18.90;80.30
63445;DHT22;49573;47.682;9.170;2023-07-09T05:03:50;19.00;79.80
63445;DHT22;49573;47.682;9.170;2023-07-09T05:06:37;19.00;80.10
63445;DHT22;49573;47.682;9.170;2023-07-09T05:09:23;19.00;79.90
63445;DHT22;49573;47.682;9.170;2023-07-09T05:12:10;19.10;80.00
63445;DHT22;49573;47.682;9.170;2023-07-09T05:14:57;19.20;79.80
63445;DHT22;49573;47.682;9.170;2023-07-09T05:17:43;19.20;79.50
63445;DHT22;49573;47.682;9.170;2023-07-09T05:20:30;19.30;79.40
63445;DHT22;49573;47.682;9.170;2023-07-09T05:23:16;19.30;79.40
63445;DHT22;49573;47.682;9.170;2023-07-09T05:26:03;19.40;79.40
63445;DHT22;49573;47.682;9.170;2023-07-09T05:28:49;19.50;78.90
63445;DHT22;49573;47.682;9.170;2023-07-09T05:31:37;19.50;78.60
63445;DHT22;49573;47.682;9.170;2023-07-09T05:34:23;19.70;78.10
63445;DHT22;49573;47.682;9.170;2023-07-09T05:37:09;19.70;78.60
63445;DHT22;49573;47.682;9.170;2023-07-09T05:39:55;19.80;78.30
63445;DHT22;49573;47.682;9.170;2023-07-09T05:42:41;19.90;78.40
63445;DHT22;49573;47.682;9.170;2023-07-09T05:45:28;20.00;78.40
63445;DHT22;49573;47.682;9.170;2023-07-09T05:48:15;20.20;78.50
63445;DHT22;49573;47.682;9.170;2023-07-09T05:51:01;20.30;77.80
63445;DHT22;49573;47.682;9.170;2023-07-09T05:53:47;20.30;77.80
63445;DHT22;49573;47.682;9.170;2023-07-09T05:56:33;20.40;77.00
63445;DHT22;49573;47.682;9.170;2023-07-09T05:59:19;20.50;77.50
63445;DHT22;49573;47.682;9.170;2023-07-09T06:02:10;20.70;77.40
63445;DHT22;49573;47.682;9.170;2023-07-09T06:04:57;20.80;76.40
63445;DHT22;49573;47.682;9.170;2023-07-09T06:07:44;20.90;75.90
63445;DHT22;49573;47.682;9.170;2023-07-09T06:10:30;21.00;75.90
63445;DHT22;49573;47.682;9.170;2023-07-09T06:13:16;21.10;75.00
63445;DHT22;49573;47.682;9.170;2023-07-09T06:16:04;21.30;75.20
63445;DHT22;49573;47.682;9.170;2023-07-09T06:18:50;21.30;75.40
63445;DHT22;49573;47.682;9.170;2023-07-09T06:21:38;21.50;74.90
63445;DHT22;49573;47.682;9.170;2023-07-09T06:24:24;21.60;73.30
63445;DHT22;49573;47.682;9.170;2023-07-09T06:27:10;21.80;72.70
63445;DHT22;49573;47.682;9.170;2023-07-09T06:29:57;21.80;72.90
63445;DHT22;49573;47.682;9.170;2023-07-09T06:32:43;22.00;72.80
63445;DHT22;49573;47.682;9.170;2023-07-09T06:35:29;22.10;71.70
63445;DHT22;49573;47.682;9.170;2023-07-09T06:38:17;22.20;71.50
63445;DHT22;49573;47.682;9.170;2023-07-09T06:41:03;22.30;69.80
63445;DHT22;49573;47.682;9.170;2023-07-09T06:43:49;22.40;70.30
63445;DHT22;49573;47.682;9.170;2023-07-09T06:46:35;22.50;70.40
63445;DHT22;49573;47.682;9.170;2023-07-09T06:49:21;22.70;69.90
63445;DHT22;49573;47.682;9.170;2023-07-09T06:52:07;22.80;69.10
63445;DHT22;49573;47.682;9.170;2023-07-09T06:54:55;22.80;68.00
63445;DHT22;49573;47.682;9.170;2023-07-09T06:57:41;22.90;67.30
63445;DHT22;49573;47.682;9.170;2023-07-09T07:00:27;23.00;67.20
63445;DHT22;49573;47.682;9.170;2023-07-09T07:03:13;23.10;66.50
63445;DHT22;49573;47.682;9.170;2023-07-09T07:05:59;23.20;65.70
63445;DHT22;49573;47.682;9.170;2023-07-09T07:08:46;23.30;66.40
63445;DHT22;49573;47.682;9.170;2023-07-09T07:11:33;23.50;66.30
63445;DHT22;49573;47.682;9.170;2023-07-09T07:14:19;23.60;66.30
63445;DHT22;49573;47.682;9.170;2023-07-09T07:17:05;23.60;64.60
63445;DHT22;49573;47.682;9.170;2023-07-09T07:19:51;23.70;65.60
63445;DHT22;49573;47.682;9.170;2023-07-09T07:22:38;23.80;65.00
63445;DHT22;49573;47.682;9.170;2023-07-09T07:25:25;23.80;65.30
63445;DHT22;49573;47.682;9.170;2023-07-09T07:28:13;23.90;64.70
63445;DHT22;49573;47.682;9.170;2023-07-09T07:31:00;24.10;64.90
63445;DHT22;49573;47.682;9.170;2023-07-09T07:33:46;24.10;63.70
63445;DHT22;49573;47.682;9.170;2023-07-09T07:36:32;24.30;63.90
63445;DHT22;49573;47.682;9.170;2023-07-09T07:39:18;24.30;63.10
63445;DHT22;49573;47.682;9.170;2023-07-09T07:42:05;24.40;63.00
63445;DHT22;49573;47.682;9.170;2023-07-09T07:44:52;24.50;62.80
63445;DHT22;49573;47.682;9.170;2023-07-09T07:47:39;24.70;63.10
63445;DHT22;49573;47.682;9.170;2023-07-09T07:50:26;24.90;62.40
63445;DHT22;49573;47.682;9.170;2023-07-09T07:53:12;24.80;62.00
63445;DHT22;49573;47.682;9.170;2023-07-09T07:55:59;25.00;62.00
63445;DHT22;49573;47.682;9.170;2023-07-09T07:58:48;25.20;61.90
63445;DHT22;49573;47.682;9.170;2023-07-09T08:01:35;25.20;61.10
63445;DHT22;49573;47.682;9.170;2023-07-09T08:04:22;25.30;60.30
63445;DHT22;49573;47.682;9.170;2023-07-09T08:07:09;25.30;61.50
63445;DHT22;49573;47.682;9.170;2023-07-09T08:09:55;25.40;61.20
63445;DHT22;49573;47.682;9.170;2023-07-09T08:12:41;25.60;60.70
63445;DHT22;49573;47.682;9.170;2023-07-09T08:15:27;25.80;60.70
63445;DHT22;49573;47.682;9.170;2023-07-09T08:18:15;25.80;60.10
63445;DHT22;49573;47.682;9.170;2023-07-09T08:21:01;25.80;59.60
63445;DHT22;49573;47.682;9.170;2023-07-09T08:23:47;26.00;60.30
63445;DHT22;49573;47.682;9.170;2023-07-09T08:26:33;26.10;60.30
63445;DHT22;49573;47.682;9.170;2023-07-09T08:29:20;26.20;60.10
63445;DHT22;49573;47.682;9.170;2023-07-09T08:32:07;26.20;60.10
63445;DHT22;49573;47.682;9.170;2023-07-09T08:34:54;26.30;59.40
63445;DHT22;49573;47.682;9.170;2023-07-09T08:37:40;26.30;59.50
63445;DHT22;49573;47.682;9.170;2023-07-09T08:40:26;26.50;59.50
63445;DHT22;49573;47.682;9.170;2023-07-09T08:43:21;26.50;59.20
63445;DHT22;49573;47.682;9.170;2023-07-09T08:46:20;26.60;58.50
63445;DHT22;49573;47.682;9.170;2023-07-09T08:49:16;26.80;58.80
63445;DHT22;49573;47.682;9.170;2023-07-09T08:52:11;27.00;58.90
63445;DHT22;49573;47.682;9.170;2023-07-09T08:55:03;26.90;57.10
63445;DHT22;49573;47.682;9.170;2023-07-09T08:57:53;27.10;57.70
63445;DHT22;49573;47.682;9.170;2023-07-09T09:00:43;27.20;57.80
63445;DHT22;49573;47.682;9.170;2023-07-09T09:03:35;27.30;57.90
63445;DHT22;49573;47.682;9.170;2023-07-09T09:06:28;27.40;57.20
63445;DHT22;49573;47.682;9.170;2023-07-09T09:09:25;27.50;55.70
63445;DHT22;49573;47.682;9.170;2023-07-09T09:12:16;27.40;56.60
63445;DHT22;49573;47.682;9.170;2023-07-09T09:15:04;27.60;55.80
63445;DHT22;49573;47.682;9.170;2023-07-09T09:18:09;27.80;54.90
63445;DHT22;49573;47.682;9.170;2023-07-09T09:21:01;27.90;55.20
63445;DHT22;49573;47.682;9.170;2023-07-09T09:23:50;28.10;53.70
63445;DHT22;49573;47.682;9.170;2023-07-09T09:26:42;28.10;52.70
63445;DHT22;49573;47.682;9.170;2023-07-09T09:29:29;28.30;53.60
63445;DHT22;49573;47.682;9.170;2023-07-09T09:32:21;28.40;51.30
63445;DHT22;49573;47.682;9.170;2023-07-09T09:35:12;28.60;51.00
63445;DHT22;49573;47.682;9.170;2023-07-09T09:37:59;28.80;50.10
63445;DHT22;49573;47.682;9.170;2023-07-09T09:40:46;28.60;48.70
63445;DHT22;49573;47.682;9.170;2023-07-09T09:43:34;28.50;49.50
63445;DHT22;49573;47.682;9.170;2023-07-09T09:46:23;28.80;48.40
63445;DHT22;49573;47.682;9.170;2023-07-09T09:49:10;28.90;50.40
63445;DHT22;49573;47.682;9.170;2023-07-09T09:52:01;29.20;48.60
63445;DHT22;49573;47.682;9.170;2023-07-09T09:54:52;29.20;48.30
63445;DHT22;49573;47.682;9.170;2023-07-09T09:57:38;29.40;50.10
63445;DHT22;49573;47.682;9.170;2023-07-09T10:00:28;29.40;50.10
63445;DHT22;49573;47.682;9.170;2023-07-09T10:03:14;29.80;48.30
63445;DHT22;49573;47.682;9.170;2023-07-09T10:06:04;29.80;49.70
63445;DHT22;49573;47.682;9.170;2023-07-09T10:08:58;29.90;48.00
63445;DHT22;49573;47.682;9.170;2023-07-09T10:11:49;30.10;48.50
63445;DHT22;49573;47.682;9.170;2023-07-09T10:14:46;30.30;49.30
63445;DHT22;49573;47.682;9.170;2023-07-09T10:17:37;30.40;49.60
63445;DHT22;49573;47.682;9.170;2023-07-09T10:20:27;30.50;50.10
63445;DHT22;49573;47.682;9.170;2023-07-09T10:23:22;30.50;49.00
63445;DHT22;49573;47.682;9.170;2023-07-09T10:26:14;30.60;48.60
63445;DHT22;49573;47.682;9.170;2023-07-09T10:29:33;30.60;48.60
63445;DHT22;49573;47.682;9.170;2023-07-09T10:32:36;30.80;49.50
63445;DHT22;49573;47.682;9.170;2023-07-09T10:35:35;30.70;46.50
63445;DHT22;49573;47.682;9.170;2023-07-09T10:38:34;31.00;47.50
63445;DHT22;49573;47.682;9.170;2023-07-09T10:41:26;31.10;47.30
63445;DHT22;49573;47.682;9.170;2023-07-09T10:44:16;31.30;47.60
63445;DHT22;49573;47.682;9.170;2023-07-09T10:47:09;31.60;48.10
63445;DHT22;49573;47.682;9.170;2023-07-09T10:49:57;31.60;47.30
63445;DHT22;49573;47.682;9.170;2023-07-09T10:52:46;31.60;47.30
63445;DHT22;49573;47.682;9.170;2023-07-09T10:55:40;31.70;45.20
63445;DHT22;49573;47.682;9.170;2023-07-09T10:58:33;31.70;43.40
63445;DHT22;49573;47.682;9.170;2023-07-09T11:01:28;31.80;44.40
63445;DHT22;49573;47.682;9.170;2023-07-09T11:04:26;32.10;42.30
63445;DHT22;49573;47.682;9.170;2023-07-09T11:07:20;32.00;41.30
63445;DHT22;49573;47.682;9.170;2023-07-09T11:10:16;32.30;40.60
63445;DHT22;49573;47.682;9.170;2023-07-09T11:13:11;32.30;41.00
63445;DHT22;49573;47.682;9.170;2023-07-09T11:15:59;32.30;39.60
63445;DHT22;49573;47.682;9.170;2023-07-09T11:18:55;32.30;39.70
63445;DHT22;49573;47.682;9.170;2023-07-09T11:21:45;32.40;40.20
63445;DHT22;49573;47.682;9.170;2023-07-09T11:24:49;32.60;38.60
63445;DHT22;49573;47.682;9.170;2023-07-09T11:27:48;32.40;37.30
63445;DHT22;49573;47.682;9.170;2023-07-09T11:30:46;32.40;39.10
63445;DHT22;49573;47.682;9.170;2023-07-09T11:36:25;33.10;37.00
63445;DHT22;49573;47.682;9.170;2023-07-09T11:39:21;32.90;38.40
63445;DHT22;49573;47.682;9.170;2023-07-09T11:45:08;33.00;37.60
63445;DHT22;49573;47.682;9.170;2023-07-09T11:47:59;33.00;36.50
63445;DHT22;49573;47.682;9.170;2023-07-09T11:50:51;33.20;35.70
63445;DHT22;49573;47.682;9.170;2023-07-09T11:53:43;33.30;35.40
63445;DHT22;49573;47.682;9.170;2023-07-09T11:56:30;33.30;35.90
63445;DHT22;49573;47.682;9.170;2023-07-09T11:59:17;33.40;34.90
63445;DHT22;49573;47.682;9.170;2023-07-09T15:21:10;38.10;22.80
63445;DHT22;49573;47.682;9.170;2023-07-09T15:32:17;37.90;24.60
63445;DHT22;49573;47.682;9.170;2023-07-09T15:35:04;38.00;23.40
63445;DHT22;49573;47.682;9.170;2023-07-09T15:37:50;38.10;23.80
63445;DHT22;49573;47.682;9.170;2023-07-09T15:40:37;38.10;23.30
63445;DHT22;49573;47.682;9.170;2023-07-09T15:43:24;38.10;23.60
63445;DHT22;49573;47.682;9.170;2023-07-09T15:46:16;38.10;23.00
63445;DHT22;49573;47.682;9.170;2023-07-09T15:49:04;38.30;22.80
63445;DHT22;49573;47.682;9.170;2023-07-09T15:51:50;38.20;23.00
63445;DHT22;49573;47.682;9.170;2023-07-09T15:54:36;38.10;22.40
63445;DHT22;49573;47.682;9.170;2023-07-09T16:00:16;38.60;22.20
63445;DHT22;49573;47.682;9.170;2023-07-09T16:03:02;38.30;23.10
63445;DHT22;49573;47.682;9.170;2023-07-09T16:05:49;38.30;23.70
63445;DHT22;49573;47.682;9.170;2023-07-09T16:08:35;38.30;23.60
63445;DHT22;49573;47.682;9.170;2023-07-09T16:11:23;38.30;23.00
63445;DHT22;49573;47.682;9.170;2023-07-09T16:22:35;38.90;22.40
63445;DHT22;49573;47.682;9.170;2023-07-09T16:31:00;38.40;22.50
63445;DHT22;49573;47.682;9.170;2023-07-09T16:33:46;38.30;22.40
63445;DHT22;49573;47.682;9.170;2023-07-09T16:42:12;38.40;22.00
63445;DHT22;49573;47.682;9.170;2023-07-09T16:44:59;38.30;23.30
63445;DHT22;49573;47.682;9.170;2023-07-09T16:47:46;38.30;22.70
63445;DHT22;49573;47.682;9.170;2023-07-09T16:50:33;38.20;23.10
63445;DHT22;49573;47.682;9.170;2023-07-09T22:11:43;38.80;22.90
63445;DHT22;49573;47.682;9.170;2023-07-09T22:14:37;23.50;53.60
63445;DHT22;49573;47.682;9.170;2023-07-09T22:17:24;23.30;53.80
63445;DHT22;49573;47.682;9.170;2023-07-09T22:20:14;23.30;53.70
63445;DHT22;49573;47.682;9.170;2023-07-09T22:23:00;23.30;53.70
63445;DHT22;49573;47.682;9.170;2023-07-09T22:25:46;23.30;54.00
63445;DHT22;49573;47.682;9.170;2023-07-09T22:28:33;23.30;54.70
63445;DHT22;49573;47.682;9.170;2023-07-09T22:31:20;23.30;54.70
63445;DHT22;49573;47.682;9.170;2023-07-09T22:34:16;23.20;54.90
63445;DHT22;49573;47.682;9.170;2023-07-09T22:37:10;23.20;55.40
63445;DHT22;49573;47.682;9.170;2023-07-09T22:39:56;23.20;56.20
63445;DHT22;49573;47.682;9.170;2023-07-09T22:42:43;23.20;56.00
63445;DHT22;49573;47.682;9.170;2023-07-09T22:45:29;23.20;55.90
63445;DHT22;49573;47.682;9.170;2023-07-09T22:48:18;23.10;56.00
63445;DHT22;49573;47.682;9.170;2023-07-09T22:51:04;23.00;56.20
63445;DHT22;49573;47.682;9.170;2023-07-09T22:53:50;23.00;56.30
63445;DHT22;49573;47.682;9.170;2023-07-09T22:56:36;23.00;56.90
63445;DHT22;49573;47.682;9.170;2023-07-09T22:59:22;23.00;56.70
63445;DHT22;49573;47.682;9.170;2023-07-09T23:02:10;22.90;57.10
63445;DHT22;49573;47.682;9.170;2023-07-09T23:04:58;22.90;57.20
63445;DHT22;49573;47.682;9.170;2023-07-09T23:07:44;22.80;57.80
63445;DHT22;49573;47.682;9.170;2023-07-09T23:10:30;22.80;57.70
63445;DHT22;49573;47.682;9.170;2023-07-09T23:13:16;22.80;58.10
63445;DHT22;49573;47.682;9.170;2023-07-09T23:16:02;22.80;58.30
63445;DHT22;49573;47.682;9.170;2023-07-09T23:18:49;22.80;58.90
63445;DHT22;49573;47.682;9.170;2023-07-09T23:21:37;22.70;58.80
63445;DHT22;49573;47.682;9.170;2023-07-09T23:24:23;22.70;59.40
63445;DHT22;49573;47.682;9.170;2023-07-09T23:27:14;22.60;59.80
63445;DHT22;49573;47.682;9.170;2023-07-09T23:30:12;22.60;59.70
63445;DHT22;49573;47.682;9.170;2023-07-09T23:32:58;22.60;60.00
63445;DHT22;49573;47.682;9.170;2023-07-09T23:35:45;22.60;60.10
63445;DHT22;49573;47.682;9.170;2023-07-09T23:38:32;22.60;60.20
63445;DHT22;49573;47.682;9.170;2023-07-09T23:41:22;22.50;60.60
63445;DHT22;49573;47.682;9.170;2023-07-09T23:44:14;22.50;61.10
63445;DHT22;49573;47.682;9.170;2023-07-09T23:47:01;22.30;61.00
63445;DHT22;49573;47.682;9.170;2023-07-09T23:49:47;22.30;61.20
63445;DHT22;49573;47.682;9.170;2023-07-09T23:52:33;22.30;61.20
